Time;durP1;ratioP1;P1;durP2;ratioP2;P2;SDS_P1;SDS_P2;PMS_P1;PMS_P2;Temp;Humidity;BMP_temperature;BMP_pressure;BME280_temperature;BME280_humidity;BME280_pressure;Samples;Min_cycle;Max_cycle;Signal;HPM_P1;HPM_P2
2023/12/18 00:00:07;;;;;;;11.77;5.50;;;0.70;99.90;;;1.49;100.00;99946.13;5053000;28;20509;-78
2023/12/18 00:02:36;;;;;;;9.17;4.43;;;0.60;99.90;;;1.49;100.00;99952.09;5052814;28;20463;-78
2023/12/18 00:05:06;;;;;;;11.37;5.87;;;0.60;99.90;;;1.47;100.00;99943.63;5052237;28;21153;-78
2023/12/18 00:07:34;;;;;;;6.63;4.20;;;0.60;99.90;;;1.50;100.00;99953.75;5052774;28;20575;-79
2023/12/18 00:10:03;;;;;;;12.37;5.70;;;0.60;99.90;;;1.53;100.00;99947.59;5053123;28;20456;-79
2023/12/18 00:12:31;;;;;;;9.00;5.17;;;0.70;99.90;;;1.50;100.00;99934.88;5051976;28;20523;-78
2023/12/18 00:15:00;;;;;;;8.20;5.33;;;0.70;99.90;;;1.49;100.00;99946.94;5052014;28;20843;-78
2023/12/18 00:17:29;;;;;;;10.87;5.87;;;0.60;99.90;;;1.46;100.00;99941.94;5053056;28;20540;-78
2023/12/18 00:19:59;;;;;;;10.20;5.63;;;0.70;99.90;;;1.50;100.00;99946.03;5051719;28;20970;-77
2023/12/18 00:22:31;;;;;;;11.40;5.20;;;0.70;99.90;;;1.51;100.00;99947.69;5052555;28;20471;-78
2023/12/18 00:25:00;;;;;;;15.13;4.93;;;0.70;99.90;;;1.44;100.00;99938.63;5053046;28;20462;-78
2023/12/18 00:27:28;;;;;;;8.50;5.83;;;0.60;99.90;;;1.44;100.00;99935.22;5051904;28;20483;-78
2023/12/18 00:29:57;;;;;;;10.80;5.53;;;0.60;99.90;;;1.43;100.00;99928.38;5050914;28;21186;-78
2023/12/18 00:32:25;;;;;;;8.80;5.40;;;0.70;99.90;;;1.45;100.00;99918.84;5051459;28;20470;-79
2023/12/18 00:34:55;;;;;;;11.80;5.83;;;0.70;99.90;;;1.46;100.00;99913.59;5050975;28;20569;-78
2023/12/18 00:37:24;;;;;;;7.37;5.37;;;0.70;99.90;;;1.51;100.00;99913.34;5051399;28;20890;-78
2023/12/18 00:39:52;;;;;;;8.93;4.40;;;0.70;99.90;;;1.47;100.00;99917.84;5051967;28;20467;-79
2023/12/18 00:42:21;;;;;;;8.37;4.80;;;0.70;99.90;;;1.45;100.00;99919.69;5049433;28;20481;-78
2023/12/18 00:44:49;;;;;;;8.60;5.73;;;0.60;99.90;;;1.38;100.00;99918.34;5052391;28;21016;-78
2023/12/18 00:47:19;;;;;;;10.63;4.77;;;0.60;99.90;;;1.34;100.00;99916.84;5054205;28;20464;-78
2023/12/18 00:49:48;;;;;;;8.67;5.27;;;0.60;99.90;;;1.36;100.00;99919.31;5052471;28;20541;-78
2023/12/18 00:52:18;;;;;;;11.37;5.10;;;0.60;99.90;;;1.36;100.00;99922.75;5051098;28;20467;-78
2023/12/18 00:54:46;;;;;;;8.70;4.50;;;0.70;99.90;;;1.39;100.00;99912.25;5050486;28;20498;-79
2023/12/18 00:57:15;;;;;;;8.53;5.10;;;0.60;99.90;;;1.39;100.00;99908.84;5050685;28;21042;-78
2023/12/18 00:59:43;;;;;;;13.17;6.20;;;0.60;99.90;;;1.35;100.00;99909.97;5051113;28;20490;-78
2023/12/18 01:02:12;;;;;;;12.03;5.40;;;0.50;99.90;;;1.30;100.00;99902.47;5051722;28;20561;-78
2023/12/18 01:04:40;;;;;;;11.63;5.53;;;0.60;99.90;;;1.33;100.00;99910.03;5052617;28;20469;-78
2023/12/18 01:07:09;;;;;;;10.43;5.47;;;0.60;99.90;;;1.31;100.00;99900.72;5051737;28;20496;-78
2023/12/18 01:09:39;;;;;;;23.73;5.20;;;0.60;99.90;;;1.34;100.00;99901.38;5051807;28;20598;-78
2023/12/18 01:12:08;;;;;;;6.03;4.30;;;0.60;99.90;;;1.34;100.00;99903.97;5049796;28;20465;-78
2023/12/18 01:14:37;;;;;;;11.50;5.60;;;0.50;99.90;;;1.34;100.00;99906.53;5049923;28;20499;-78
2023/12/18 01:17:05;;;;;;;9.03;4.70;;;0.50;99.90;;;1.34;100.00;99900.56;5052958;28;20523;-78
2023/12/18 01:19:34;;;;;;;14.37;5.00;;;0.50;99.90;;;1.31;100.00;99904.13;5052820;28;20473;-78
2023/12/18 01:22:02;;;;;;;11.40;5.07;;;0.50;99.90;;;1.33;100.00;99898.88;5051749;28;20472;-78
2023/12/18 01:24:31;;;;;;;13.53;4.00;;;0.50;99.90;;;1.32;100.00;99899.81;5051742;28;20546;-78
2023/12/18 01:27:01;;;;;;;12.80;5.50;;;0.50;99.90;;;1.30;100.00;99892.16;5049937;28;20567;-78
2023/12/18 01:29:29;;;;;;;8.00;4.97;;;0.50;99.90;;;1.25;100.00;99903.63;5051476;28;20468;-78
2023/12/18 01:31:58;;;;;;;9.23;4.50;;;0.50;99.90;;;1.26;100.00;99906.13;5051531;28;20462;-78
2023/12/18 01:34:26;;;;;;;9.80;5.40;;;0.40;99.90;;;1.26;100.00;99905.28;5050486;28;20495;-78
2023/12/18 01:36:55;;;;;;;9.50;4.67;;;0.40;99.90;;;1.19;100.00;99907.34;5053334;28;20457;-78
2023/12/18 01:39:23;;;;;;;9.10;4.20;;;0.40;99.90;;;1.21;100.00;99902.97;5052392;28;20879;-78
2023/12/18 01:41:52;;;;;;;8.70;4.57;;;0.40;99.90;;;1.18;100.00;99895.38;5051539;28;20526;-78
2023/12/18 01:44:22;;;;;;;7.80;4.73;;;0.40;99.90;;;1.18;100.00;99903.09;5051045;28;20848;-78
2023/12/18 01:46:50;;;;;;;6.07;4.70;;;0.30;99.90;;;1.18;100.00;99904.88;5052073;28;20937;-78
2023/12/18 01:49:19;;;;;;;8.77;4.23;;;0.40;99.90;;;1.18;100.00;99910.84;5052171;28;20470;-77
2023/12/18 01:51:48;;;;;;;7.77;4.10;;;0.50;99.90;;;1.19;100.00;99904.78;5050300;28;20465;-78
2023/12/18 01:54:19;;;;;;;7.27;4.90;;;0.40;99.90;;;1.20;100.00;99896.16;5051101;28;20464;-78
2023/12/18 01:56:48;;;;;;;10.10;4.33;;;0.40;99.90;;;1.20;100.00;99897.88;5051760;28;20471;-79
2023/12/18 01:59:17;;;;;;;7.80;4.20;;;0.40;99.90;;;1.15;100.00;99889.56;5051873;28;20463;-78
2023/12/18 02:01:48;;;;;;;9.40;4.37;;;0.30;99.90;;;1.15;100.00;99885.25;5053582;28;20538;-78
2023/12/18 02:04:18;;;;;;;8.23;4.47;;;0.40;99.90;;;1.14;100.00;99885.34;5051840;28;20531;-78
2023/12/18 02:06:49;;;;;;;11.40;4.50;;;0.30;99.90;;;1.14;100.00;99883.59;5051399;28;20973;-78
2023/12/18 02:09:17;;;;;;;5.30;3.90;;;0.40;99.90;;;1.17;100.00;99883.44;5051660;28;20521;-77
2023/12/18 02:11:45;;;;;;;8.70;4.63;;;0.40;99.90;;;1.14;100.00;99873.31;5050327;28;20491;-78
2023/12/18 02:14:14;;;;;;;7.17;4.27;;;0.30;99.90;;;1.11;100.00;99876.00;5049587;28;20462;-78
2023/12/18 02:16:42;;;;;;;5.97;3.70;;;0.30;99.90;;;1.12;100.00;99875.13;5051194;28;20499;-78
2023/12/18 02:19:25;;;;;;;5.90;4.33;;;0.30;99.90;;;1.14;100.00;99877.63;5054353;28;20468;-78
2023/12/18 02:21:56;;;;;;;7.77;4.37;;;0.40;99.90;;;1.12;100.00;99875.13;5054592;28;20475;-78
2023/12/18 02:24:26;;;;;;;8.23;4.10;;;0.30;99.90;;;1.11;100.00;99873.44;5054914;28;20461;-78
2023/12/18 02:26:59;;;;;;;8.93;4.87;;;0.30;99.90;;;1.10;100.00;99876.94;5055382;28;21058;-78
2023/12/18 02:29:28;;;;;;;6.93;4.30;;;0.30;99.90;;;1.09;100.00;99867.56;5055711;28;20903;-78
2023/12/18 02:31:57;;;;;;;6.80;4.57;;;0.30;99.90;;;1.13;100.00;99865.66;5054937;28;20492;-78
2023/12/18 02:34:25;;;;;;;6.37;4.00;;;0.30;99.90;;;1.12;100.00;99861.41;5053122;28;20506;-79
2023/12/18 02:36:54;;;;;;;9.50;4.03;;;0.30;99.90;;;1.08;100.00;99867.66;5055197;28;20495;-78
2023/12/18 02:39:22;;;;;;;6.63;4.33;;;0.20;99.90;;;1.07;100.00;99864.25;5054552;28;20476;-77
2023/12/18 02:41:52;;;;;;;8.27;4.00;;;0.30;99.90;;;1.04;100.00;99851.53;5052926;28;20458;-78
2023/12/18 02:44:21;;;;;;;11.63;4.90;;;0.20;99.90;;;1.05;100.00;99857.50;5055432;28;20487;-78
2023/12/18 02:46:49;;;;;;;7.40;4.33;;;0.20;99.90;;;1.06;100.00;99849.69;5054426;28;20468;-78
2023/12/18 02:49:18;;;;;;;13.67;3.67;;;0.20;99.90;;;1.06;100.00;99848.84;5053999;28;20493;-78
2023/12/18 02:51:48;;;;;;;9.00;3.77;;;0.20;99.90;;;1.05;100.00;99847.19;5054018;28;20467;-78
2023/12/18 02:54:17;;;;;;;6.80;4.27;;;0.20;99.90;;;1.02;100.00;99853.34;5054475;28;20472;-78
2023/12/18 02:56:45;;;;;;;14.60;4.63;;;0.20;99.90;;;1.05;100.00;99842.03;5056454;28;20495;-78
2023/12/18 02:59:15;;;;;;;4.30;3.50;;;0.20;99.90;;;1.01;100.00;99838.78;5054605;28;20471;-78
2023/12/18 03:01:44;;;;;;;4.23;3.70;;;0.20;99.90;;;0.97;100.00;99839.91;5054063;28;20478;-79
2023/12/18 03:04:12;;;;;;;14.60;3.87;;;0.10;99.90;;;0.97;100.00;99839.91;5053054;28;20898;-78
2023/12/18 03:06:40;;;;;;;7.77;3.70;;;0.10;99.90;;;0.96;100.00;99843.38;5053791;28;20477;-78
2023/12/18 03:09:09;;;;;;;8.90;4.57;;;0.10;99.90;;;0.94;100.00;99850.34;5055345;28;20495;-77
2023/12/18 03:11:37;;;;;;;7.53;3.50;;;0.10;99.90;;;0.96;100.00;99848.53;5053346;28;20473;-78
2023/12/18 03:14:06;;;;;;;12.40;4.83;;;0.10;99.90;;;0.99;100.00;99853.50;5055524;28;20907;-78
2023/12/18 03:16:36;;;;;;;6.10;3.37;;;0.20;99.90;;;0.90;100.00;99851.44;5053277;28;20503;-78
2023/12/18 03:19:04;;;;;;;10.10;3.40;;;0.10;99.90;;;0.89;100.00;99847.19;5055735;28;20463;-78
2023/12/18 03:21:33;;;;;;;6.03;3.40;;;0.20;99.90;;;0.88;100.00;99841.22;5054928;28;20459;-78
2023/12/18 03:24:02;;;;;;;5.00;3.50;;;0.20;99.90;;;0.84;100.00;99829.41;5054446;28;21255;-78
2023/12/18 03:26:30;;;;;;;7.00;3.77;;;0.10;99.90;;;0.84;100.00;99838.88;5056843;28;20502;-78
2023/12/18 03:28:58;;;;;;;6.90;3.93;;;0.10;99.90;;;0.86;100.00;99829.34;5053646;28;20457;-78
2023/12/18 03:31:27;;;;;;;9.83;4.40;;;0.10;99.90;;;0.87;100.00;99834.38;5053727;28;20475;-78
2023/12/18 03:33:57;;;;;;;11.13;4.73;;;0.10;99.90;;;0.84;100.00;99828.56;5054579;28;20487;-78
2023/12/18 03:36:25;;;;;;;21.10;5.37;;;0.10;99.90;;;0.82;100.00;99822.69;5056568;28;20516;-78
2023/12/18 03:38:54;;;;;;;6.03;3.77;;;0.10;99.90;;;0.78;100.00;99819.44;5055402;28;20900;-78
2023/12/18 03:41:22;;;;;;;6.87;3.87;;;0.20;99.90;;;0.81;100.00;99814.13;5053106;28;20466;-78
2023/12/18 03:43:51;;;;;;;7.27;4.30;;;0.20;99.90;;;0.82;100.00;99817.53;5051490;28;21220;-78
2023/12/18 03:46:20;;;;;;;12.23;4.40;;;0.20;99.90;;;0.85;100.00;99818.22;5055656;28;20464;-78
2023/12/18 03:48:48;;;;;;;5.20;3.60;;;0.10;99.90;;;0.85;100.00;99809.66;5051555;28;20538;-78
2023/12/18 03:51:18;;;;;;;7.77;4.80;;;0.10;99.90;;;0.83;100.00;99811.50;5051785;28;20472;-78
2023/12/18 03:53:46;;;;;;;6.83;4.80;;;0.10;99.90;;;0.79;100.00;99817.72;5052749;28;21034;-78
2023/12/18 03:56:15;;;;;;;10.97;4.70;;;0.10;99.90;;;0.78;100.00;99809.16;5053711;28;20866;-78
2023/12/18 03:58:44;;;;;;;9.27;3.80;;;0.20;99.90;;;0.77;100.00;99811.78;5052394;28;20510;-78
2023/12/18 04:01:12;;;;;;;7.00;4.20;;;0.10;99.90;;;0.78;100.00;99809.16;5053598;28;20527;-78
2023/12/18 04:03:41;;;;;;;7.90;4.20;;;0.00;99.90;;;0.80;100.00;99811.66;5054175;28;20473;-78
2023/12/18 04:06:10;;;;;;;5.33;4.00;;;0.00;99.90;;;0.81;100.00;99810.72;5051709;28;20521;-78
2023/12/18 04:08:40;;;;;;;10.33;4.47;;;0.00;99.90;;;0.80;100.00;99816.81;5052347;28;20475;-76
2023/12/18 04:11:15;;;;;;;12.27;5.30;;;0.10;99.90;;;0.78;100.00;99818.63;5050228;28;20464;-78
2023/12/18 04:13:44;;;;;;;8.67;4.40;;;0.00;99.90;;;0.78;100.00;99821.19;5052389;28;20491;-77
2023/12/18 04:16:12;;;;;;;10.10;5.03;;;0.00;99.90;;;0.77;100.00;99812.63;5052479;28;20494;-78
2023/12/18 04:18:40;;;;;;;6.10;4.07;;;0.00;99.90;;;0.79;100.00;99820.28;5052059;28;20464;-77
2023/12/18 04:21:09;;;;;;;16.23;4.93;;;0.00;99.90;;;0.77;100.00;99824.66;5048688;28;20956;-77
2023/12/18 04:23:39;;;;;;;8.80;4.53;;;0.00;99.90;;;0.75;100.00;99817.03;5050526;28;21389;-79
2023/12/18 04:26:09;;;;;;;9.40;4.30;;;0.00;99.90;;;0.78;100.00;99818.63;5051296;28;20492;-79
2023/12/18 04:28:38;;;;;;;5.80;4.63;;;0.00;99.90;;;0.72;100.00;99818.94;5049077;28;20466;-78
2023/12/18 04:31:06;;;;;;;10.50;5.43;;;-0.10;99.90;;;0.71;100.00;99819.84;5051011;28;21279;-77
2023/12/18 04:33:34;;;;;;;14.27;4.53;;;-0.10;99.90;;;0.67;100.00;99818.34;5049837;28;20463;-77
2023/12/18 04:36:03;;;;;;;10.27;4.77;;;-0.10;99.90;;;0.68;100.00;99817.44;5051417;28;21170;-77
2023/12/18 04:38:32;;;;;;;9.40;4.00;;;-0.20;99.90;;;0.71;100.00;99818.09;5050721;28;20460;-78
2023/12/18 04:41:02;;;;;;;7.50;4.70;;;-0.10;99.90;;;0.67;100.00;99815.78;5049835;28;20475;-78
2023/12/18 04:43:30;;;;;;;10.23;4.97;;;-0.10;99.90;;;0.70;100.00;99825.91;5050325;28;20465;-77
2023/12/18 04:46:01;;;;;;;8.93;5.00;;;-0.10;99.90;;;0.72;100.00;99818.94;5052359;28;21299;-77
2023/12/18 04:48:29;;;;;;;8.37;4.90;;;0.00;99.90;;;0.68;100.00;99810.56;5053040;28;20560;-78
2023/12/18 04:50:58;;;;;;;9.37;4.67;;;-0.10;99.90;;;0.68;100.00;99822.59;5055046;28;20457;-77
2023/12/18 04:53:26;;;;;;;10.53;4.63;;;-0.10;99.90;;;0.61;100.00;99832.38;5051790;28;20462;-78
2023/12/18 04:55:56;;;;;;;7.97;3.97;;;-0.10;99.90;;;0.62;100.00;99823.75;5050869;28;20460;-78
2023/12/18 04:58:26;;;;;;;9.07;4.10;;;-0.20;99.90;;;0.64;100.00;99827.06;5052309;28;21024;-77
2023/12/18 05:00:54;;;;;;;7.97;4.27;;;-0.10;99.90;;;0.64;100.00;99831.38;5051982;28;20483;-78
2023/12/18 05:03:23;;;;;;;7.50;5.03;;;-0.20;99.90;;;0.61;100.00;99837.53;5050727;28;20531;-78
2023/12/18 05:05:52;;;;;;;7.93;4.50;;;-0.10;99.90;;;0.61;100.00;99837.53;5052009;28;20460;-77
2023/12/18 05:08:20;;;;;;;10.20;4.70;;;-0.10;99.90;;;0.62;100.00;99839.19;5051600;28;20486;-78
2023/12/18 05:10:49;;;;;;;8.70;4.43;;;-0.20;99.90;;;0.64;100.00;99841.66;5049912;28;20462;-77
2023/12/18 05:13:17;;;;;;;7.77;4.23;;;-0.20;99.90;;;0.62;100.00;99844.34;5047211;28;20476;-78
2023/12/18 05:15:47;;;;;;;5.10;3.70;;;-0.20;99.90;;;0.64;100.00;99841.66;5052981;28;20464;-78
2023/12/18 05:18:16;;;;;;;9.90;5.10;;;-0.10;99.90;;;0.60;100.00;99843.56;5051624;28;20511;-78
2023/12/18 05:20:45;;;;;;;12.27;6.10;;;-0.20;99.90;;;0.60;100.00;99841.00;5046114;28;20479;-78
2023/12/18 05:23:13;;;;;;;12.67;5.03;;;-0.20;99.90;;;0.56;100.00;99844.63;5048454;28;20463;-78
2023/12/18 05:25:42;;;;;;;9.20;4.77;;;-0.20;99.90;;;0.57;100.00;99840.31;5049013;28;20468;-78
2023/12/18 05:28:10;;;;;;;6.30;4.70;;;-0.30;99.90;;;0.54;100.00;99841.31;5053261;28;20460;-78
2023/12/18 05:30:38;;;;;;;9.57;4.90;;;-0.30;99.90;;;0.50;100.00;99842.41;5052580;28;20465;-78
2023/12/18 05:33:11;;;;;;;7.80;5.10;;;-0.40;99.90;;;0.50;100.00;99835.50;5052861;28;20543;-78
2023/12/18 05:35:40;;;;;;;9.13;3.80;;;-0.20;99.90;;;0.54;100.00;99825.06;5053140;28;20844;-77
2023/12/18 05:38:08;;;;;;;15.40;5.63;;;-0.30;99.90;;;0.52;100.00;99829.47;5053350;28;20503;-78
2023/12/18 05:40:37;;;;;;;13.90;5.50;;;-0.30;99.90;;;0.56;100.00;99833.50;5050506;28;20468;-77
2023/12/18 05:43:06;;;;;;;8.30;4.50;;;-0.30;99.90;;;0.58;100.00;99832.53;5052560;28;20475;-78
2023/12/18 05:45:35;;;;;;;10.70;4.27;;;-0.20;99.90;;;0.50;100.00;99832.94;5050401;28;20496;-77
2023/12/18 05:48:03;;;;;;;9.57;4.10;;;-0.30;99.90;;;0.54;100.00;99830.19;5051284;28;20841;-77
2023/12/18 05:50:33;;;;;;;16.03;5.40;;;-0.30;99.90;;;0.52;100.00;99833.69;5050046;28;20858;-78
2023/12/18 05:53:02;;;;;;;10.13;5.37;;;-0.30;99.90;;;0.55;100.00;99831.88;5050775;28;21767;-78
2023/12/18 05:55:30;;;;;;;9.13;5.30;;;-0.20;99.90;;;0.48;100.00;99836.50;5052879;28;20517;-78
2023/12/18 05:57:59;;;;;;;14.63;5.17;;;-0.20;99.90;;;0.49;100.00;99833.84;5054468;28;20490;-78
2023/12/18 06:00:27;;;;;;;11.17;4.47;;;-0.30;99.90;;;0.45;100.00;99832.34;5052408;28;21266;-78
2023/12/18 06:02:55;;;;;;;5.50;4.23;;;-0.30;99.90;;;0.44;100.00;99835.84;5053758;28;20492;-78
2023/12/18 06:05:24;;;;;;;10.97;4.83;;;-0.40;99.90;;;0.47;100.00;99840.81;5053280;28;20461;-78
2023/12/18 06:07:54;;;;;;;7.20;4.80;;;-0.30;99.90;;;0.44;100.00;99838.41;5053232;28;20858;-77
2023/12/18 06:10:22;;;;;;;7.33;4.40;;;-0.40;99.90;;;0.46;100.00;99844.28;5053299;28;20472;-78
2023/12/18 06:12:51;;;;;;;9.20;4.10;;;-0.40;99.90;;;0.48;100.00;99846.81;5054126;28;20464;-78
2023/12/18 06:15:20;;;;;;;8.13;4.10;;;-0.30;99.90;;;0.43;100.00;99844.47;5053450;28;20473;-79
2023/12/18 06:17:48;;;;;;;23.07;5.10;;;-0.40;99.90;;;0.43;100.00;99849.59;5051084;28;20502;-78
2023/12/18 06:20:17;;;;;;;8.70;5.23;;;-0.40;99.90;;;0.47;100.00;99851.13;5051499;28;20464;-79
2023/12/18 06:22:45;;;;;;;6.80;4.73;;;-0.30;99.90;;;0.47;100.00;99838.25;5053978;28;20457;-77
2023/12/18 06:25:15;;;;;;;8.67;4.53;;;-0.30;99.90;;;0.44;100.00;99835.00;5053055;28;20474;-77
2023/12/18 06:27:44;;;;;;;9.40;5.53;;;-0.40;99.90;;;0.43;100.00;99843.63;5056185;28;20958;-77
2023/12/18 06:30:15;;;;;;;7.10;4.50;;;-0.40;99.90;;;0.42;100.00;99854.81;5051016;28;20517;-77
2023/12/18 06:32:44;;;;;;;16.67;6.90;;;-0.40;99.90;;;0.42;100.00;99847.09;5053501;28;20454;-77
2023/12/18 06:35:13;;;;;;;9.90;5.10;;;-0.40;99.90;;;0.42;100.00;99841.94;5052195;28;20477;-77
2023/12/18 06:37:42;;;;;;;15.37;4.80;;;-0.40;99.90;;;0.40;100.00;99846.34;5053274;28;20606;-77
2023/12/18 06:40:12;;;;;;;8.40;4.93;;;-0.30;99.90;;;0.40;100.00;99848.94;5053299;28;20467;-76
2023/12/18 06:42:42;;;;;;;7.97;4.40;;;-0.30;99.90;;;0.36;100.00;99843.09;5055049;28;20973;-76
2023/12/18 06:45:11;;;;;;;10.47;4.70;;;-0.30;99.90;;;0.39;100.00;99848.09;5055472;28;20468;-76
2023/12/18 06:47:40;;;;;;;10.53;4.87;;;-0.40;99.90;;;0.33;100.00;99845.84;5056320;28;20507;-76
2023/12/18 06:50:09;;;;;;;12.53;5.53;;;-0.40;99.90;;;0.32;100.00;99838.19;5056966;28;20467;-76
2023/12/18 06:52:38;;;;;;;10.33;5.40;;;-0.50;99.90;;;0.33;100.00;99847.56;5055505;28;20462;-76
2023/12/18 06:55:08;;;;;;;9.97;4.90;;;-0.50;99.90;;;0.31;100.00;99837.34;5055570;28;20541;-76
2023/12/18 06:57:36;;;;;;;9.73;4.60;;;-0.50;99.90;;;0.33;100.00;99837.28;5056759;28;20489;-77
2023/12/18 07:00:08;;;;;;;11.37;5.43;;;-0.50;99.90;;;0.34;100.00;99836.38;5056518;28;20478;-77
2023/12/18 07:02:37;;;;;;;10.73;5.07;;;-0.40;99.90;;;0.36;100.00;99837.97;5057835;28;20832;-76
2023/12/18 07:05:08;;;;;;;5.63;4.23;;;-0.30;99.90;;;0.38;100.00;99833.56;5054531;28;21027;-76
2023/12/18 07:07:36;;;;;;;11.17;4.80;;;-0.30;99.90;;;0.43;100.00;99839.31;5056855;28;20473;-76
2023/12/18 07:10:07;;;;;;;11.70;5.17;;;-0.30;99.90;;;0.46;100.00;99841.72;5056216;28;20471;-76
2023/12/18 07:12:35;;;;;;;13.60;5.87;;;-0.30;99.90;;;0.49;100.00;99843.28;5057042;28;21064;-76
2023/12/18 07:15:07;;;;;;;7.40;4.50;;;-0.40;99.90;;;0.49;100.00;99838.97;5056701;28;20471;-76
2023/12/18 07:17:36;;;;;;;12.87;5.00;;;-0.30;99.90;;;0.50;100.00;99840.66;5055314;28;20990;-76
2023/12/18 07:20:08;;;;;;;7.90;4.43;;;-0.20;99.90;;;0.54;100.00;99837.91;5054861;28;20472;-76
2023/12/18 07:22:39;;;;;;;10.03;4.87;;;-0.20;99.90;;;0.58;100.00;99831.72;5056287;28;20978;-76
2023/12/18 07:25:10;;;;;;;8.33;5.33;;;-0.10;99.90;;;0.61;100.00;99841.84;5056336;28;20462;-76
2023/12/18 07:27:39;;;;;;;12.87;5.17;;;-0.10;99.90;;;0.64;100.00;99828.81;5055525;28;20993;-76
2023/12/18 07:30:10;;;;;;;14.57;5.63;;;-0.10;99.90;;;0.66;100.00;99829.56;5056352;28;21235;-76
2023/12/18 07:32:41;;;;;;;12.53;5.90;;;0.00;99.90;;;0.69;100.00;99824.25;5057412;28;20480;-76
2023/12/18 07:35:10;;;;;;;9.00;5.50;;;0.00;99.90;;;0.72;100.00;99834.38;5058070;28;20503;-76
2023/12/18 07:37:38;;;;;;;13.07;7.10;;;0.00;99.90;;;0.75;100.00;99834.22;5055876;28;20892;-76
2023/12/18 07:40:08;;;;;;;13.10;5.30;;;0.00;99.90;;;0.74;100.00;99835.13;5058387;28;20527;-76
2023/12/18 07:42:37;;;;;;;13.23;6.40;;;0.00;99.90;;;0.78;100.00;99839.19;5057951;28;20471;-76
2023/12/18 07:45:09;;;;;;;15.47;6.60;;;0.10;99.90;;;0.77;100.00;99845.25;5056586;28;21215;-76
2023/12/18 07:47:39;;;;;;;9.47;5.43;;;0.00;99.90;;;0.78;100.00;99845.19;5056510;28;20483;-76
2023/12/18 07:50:09;;;;;;;13.10;6.33;;;0.00;99.90;;;0.81;100.00;99844.19;5056847;28;20553;-77
2023/12/18 07:52:37;;;;;;;12.90;7.20;;;0.00;99.90;;;0.82;100.00;99841.53;5056009;28;20466;-76
2023/12/18 07:55:07;;;;;;;12.13;6.03;;;0.10;99.90;;;0.82;100.00;99848.44;5054480;28;20563;-76
2023/12/18 07:57:36;;;;;;;14.00;6.00;;;0.10;99.90;;;0.86;100.00;99860.25;5054392;28;21197;-76
2023/12/18 08:00:07;;;;;;;11.97;7.20;;;0.10;99.90;;;0.91;100.00;99853.09;5054759;28;20469;-76
2023/12/18 08:02:37;;;;;;;15.23;6.27;;;0.20;99.90;;;0.91;100.00;99850.50;5056707;28;20462;-76
2023/12/18 08:05:06;;;;;;;13.00;5.57;;;0.20;99.90;;;0.90;100.00;99849.66;5056699;28;20453;-76
2023/12/18 08:07:34;;;;;;;14.07;7.60;;;0.10;99.90;;;0.89;100.00;99845.47;5054669;28;20952;-76
2023/12/18 08:10:03;;;;;;;14.63;7.07;;;0.10;99.90;;;0.90;100.00;99846.28;5056233;28;20468;-76
2023/12/18 08:12:33;;;;;;;12.63;6.20;;;0.10;99.90;;;0.84;100.00;99854.31;5053382;28;20481;-76
2023/12/18 08:15:02;;;;;;;16.83;7.17;;;0.00;99.90;;;0.86;100.00;99852.50;5055375;28;20463;-76
2023/12/18 08:17:39;;;;;;;22.37;7.17;;;0.00;99.90;;;0.86;100.00;99855.09;5055624;28;20460;-76
2023/12/18 08:20:09;;;;;;;13.93;6.87;;;0.10;99.90;;;0.87;100.00;99843.84;5056845;28;21015;-76
2023/12/18 08:22:38;;;;;;;10.43;6.90;;;0.20;99.90;;;0.91;100.00;99845.34;5056051;28;20468;-76
2023/12/18 08:25:08;;;;;;;13.07;6.57;;;0.20;99.90;;;0.91;100.00;99840.22;5056384;28;20491;-76
2023/12/18 08:27:36;;;;;;;12.63;6.53;;;0.20;99.90;;;0.93;100.00;99831.50;5056262;28;20524;-77
2023/12/18 08:30:08;;;;;;;14.43;7.10;;;0.20;99.90;;;0.93;100.00;99838.41;5055147;28;20468;-76
2023/12/18 08:32:40;;;;;;;13.33;5.53;;;0.10;99.90;;;0.92;100.00;99834.16;5054017;28;20491;-76
2023/12/18 08:35:10;;;;;;;12.70;6.97;;;0.10;99.90;;;0.93;100.00;99838.41;5054391;28;20506;-76
2023/12/18 08:37:38;;;;;;;12.83;6.23;;;0.20;99.90;;;0.90;100.00;99831.66;5055830;28;20538;-81
2023/12/18 08:40:09;;;;;;;10.60;5.43;;;0.20;99.90;;;0.88;100.00;99830.91;5054984;28;20505;-76
2023/12/18 08:42:37;;;;;;;8.80;6.03;;;0.30;99.90;;;0.92;100.00;99826.44;5054720;28;20520;-76
2023/12/18 08:45:07;;;;;;;11.33;5.90;;;0.20;99.90;;;0.91;100.00;99829.91;5054009;28;20468;-76
2023/12/18 08:47:35;;;;;;;13.20;6.40;;;0.20;99.90;;;0.92;100.00;99816.97;5055210;28;20462;-76
2023/12/18 08:50:06;;;;;;;14.20;7.30;;;0.20;99.90;;;0.89;100.00;99819.72;5053167;28;20803;-77
2023/12/18 08:52:35;;;;;;;8.67;5.83;;;0.20;99.90;;;0.94;100.00;99822.00;5054031;28;20470;-76
2023/12/18 08:55:04;;;;;;;14.87;7.17;;;0.20;99.90;;;0.95;100.00;99821.09;5054935;28;20469;-76
2023/12/18 08:57:32;;;;;;;11.53;5.57;;;0.20;99.90;;;0.96;100.00;99822.78;5055606;28;20974;-77
2023/12/18 09:00:01;;;;;;;9.87;6.30;;;0.20;99.90;;;0.95;100.00;99823.69;5054217;28;20488;-76
2023/12/18 09:02:30;;;;;;;15.00;5.73;;;0.20;99.90;;;0.91;100.00;99824.75;5055289;28;20495;-76
2023/12/18 09:04:58;;;;;;;12.13;7.37;;;0.20;99.90;;;0.92;100.00;99821.28;5054017;28;20460;-76
2023/12/18 09:07:28;;;;;;;14.53;6.70;;;0.20;99.90;;;0.96;100.00;99827.94;5053857;28;20468;-76
2023/12/18 09:09:57;;;;;;;8.43;6.00;;;0.20;99.90;;;1.00;100.00;99829.44;5054097;28;20547;-76
2023/12/18 09:12:25;;;;;;;12.10;5.47;;;0.20;99.90;;;1.03;100.00;99826.69;5054279;28;20477;-77
2023/12/18 09:14:54;;;;;;;11.43;6.30;;;0.30;99.90;;;1.03;100.00;99829.25;5056911;28;20468;-76
2023/12/18 09:17:22;;;;;;;15.33;7.30;;;0.30;99.90;;;1.02;100.00;99818.13;5055456;28;20463;-76
2023/12/18 09:19:51;;;;;;;13.20;6.53;;;0.30;99.90;;;1.08;100.00;99821.28;5055877;28;20502;-76
2023/12/18 09:22:19;;;;;;;12.53;7.43;;;0.40;99.90;;;1.09;100.00;99823.78;5053169;28;20468;-77
2023/12/18 09:24:49;;;;;;;11.20;6.43;;;0.30;99.90;;;1.09;100.00;99816.03;5054375;28;20462;-76
2023/12/18 09:27:18;;;;;;;11.23;5.73;;;0.30;99.90;;;1.10;100.00;99815.13;5055315;28;20863;-76
2023/12/18 09:29:46;;;;;;;10.20;5.73;;;0.30;99.90;;;1.09;100.00;99813.47;5053303;28;20466;-76
2023/12/18 09:32:15;;;;;;;10.30;6.60;;;0.30;99.90;;;1.13;100.00;99819.28;5054428;28;20976;-76
2023/12/18 09:34:44;;;;;;;9.80;5.93;;;0.40;99.90;;;1.15;100.00;99818.28;5053446;28;20523;-76
2023/12/18 09:37:12;;;;;;;9.10;5.90;;;0.40;99.90;;;1.18;100.00;99807.00;5054681;28;20465;-76
2023/12/18 09:39:42;;;;;;;9.60;4.87;;;0.40;99.90;;;1.24;100.00;99816.94;5053340;28;20862;-77
2023/12/18 09:42:13;;;;;;;12.57;6.83;;;0.50;99.90;;;1.25;100.00;99814.28;5052776;28;21427;-76
2023/12/18 09:44:48;;;;;;;21.23;7.53;;;0.60;99.90;;;1.30;100.00;99809.72;5053052;28;20466;-77
2023/12/18 09:47:18;;;;;;;10.57;5.43;;;0.60;99.90;;;1.30;100.00;99812.28;5053623;28;20567;-76
2023/12/18 09:49:47;;;;;;;16.13;7.20;;;0.60;99.90;;;1.33;100.00;99812.13;5052863;28;20545;-76
2023/12/18 09:52:18;;;;;;;11.70;5.87;;;0.70;99.90;;;1.37;100.00;99808.47;5053510;28;20476;-76
2023/12/18 09:54:51;;;;;;;14.60;7.00;;;0.80;99.90;;;1.42;100.00;99805.63;5054205;28;20534;-76
2023/12/18 09:57:25;;;;;;;12.03;5.90;;;0.80;99.90;;;1.45;100.00;99797.72;5052673;28;20474;-76
2023/12/18 09:59:54;;;;;;;13.00;6.60;;;0.90;99.90;;;1.51;100.00;99795.63;5056132;28;20806;-77
2023/12/18 10:02:26;;;;;;;13.20;6.53;;;1.10;99.90;;;1.58;100.00;99795.28;5051865;28;20836;-76
2023/12/18 10:04:54;;;;;;;9.87;5.70;;;1.10;99.90;;;1.62;100.00;99791.59;5054607;28;20448;-76
2023/12/18 10:07:23;;;;;;;9.53;5.97;;;1.10;99.90;;;1.66;100.00;99793.09;5053493;28;20463;-76
2023/12/18 10:09:51;;;;;;;9.67;6.10;;;1.10;99.90;;;1.70;100.00;99800.53;5056216;28;20960;-77
2023/12/18 10:12:22;;;;;;;9.17;6.23;;;1.10;99.90;;;1.74;100.00;99790.88;5052736;28;20559;-76
2023/12/18 10:14:50;;;;;;;8.83;5.17;;;1.20;99.90;;;1.78;100.00;99795.78;5054140;28;20511;-76
2023/12/18 10:17:20;;;;;;;16.23;7.10;;;1.20;99.90;;;1.81;100.00;99802.50;5055085;28;20465;-76
2023/12/18 10:19:51;;;;;;;12.20;7.10;;;1.20;99.90;;;1.84;100.00;99789.47;5053079;28;20487;-77
2023/12/18 10:22:19;;;;;;;11.37;6.90;;;1.20;99.90;;;1.87;100.00;99789.28;5051881;28;20465;-77
2023/12/18 10:24:51;;;;;;;11.53;6.90;;;1.30;99.90;;;1.88;100.00;99786.59;5052343;28;20463;-76
2023/12/18 10:27:22;;;;;;;8.97;6.80;;;1.30;99.90;;;1.90;100.00;99787.34;5054007;28;21022;-77